sensor_id;sensor_type;location;lat;lon;timestamp;temperature;humidity
55988;DHT22;75964;50.930;4.514;2024-03-02T00:00:19;7.40;96.00
55988;DHT22;75964;50.930;4.514;2024-03-02T00:02:47;7.40;96.10
55988;DHT22;75964;50.930;4.514;2024-03-02T00:05:15;7.40;96.10
55988;DHT22;75964;50.930;4.514;2024-03-02T00:07:42;7.40;95.50
55988;DHT22;75964;50.930;4.514;2024-03-02T00:10:09;7.30;95.70
55988;DHT22;75964;50.930;4.514;2024-03-02T00:12:39;7.30;95.80
55988;DHT22;75964;50.930;4.514;2024-03-02T00:15:20;7.20;95.50
55988;DHT22;75964;50.930;4.514;2024-03-02T00:17:53;7.20;95.70
55988;DHT22;75964;50.930;4.514;2024-03-02T00:20:21;7.20;95.80
55988;DHT22;75964;50.930;4.514;2024-03-02T00:22:47;7.20;96.00
55988;DHT22;75964;50.930;4.514;2024-03-02T00:25:13;7.20;95.70
55988;DHT22;75964;50.930;4.514;2024-03-02T00:27:38;7.30;95.50
55988;DHT22;75964;50.930;4.514;2024-03-02T00:32:59;7.20;95.90
55988;DHT22;75964;50.930;4.514;2024-03-02T00:35:25;7.10;95.40
55988;DHT22;75964;50.930;4.514;2024-03-02T00:37:51;7.20;95.60
55988;DHT22;75964;50.930;4.514;2024-03-02T00:40:17;7.10;95.30
55988;DHT22;75964;50.930;4.514;2024-03-02T00:42:44;7.10;95.40
55988;DHT22;75964;50.930;4.514;2024-03-02T00:45:10;7.10;95.40
55988;DHT22;75964;50.930;4.514;2024-03-02T00:47:42;7.10;95.40
55988;DHT22;75964;50.930;4.514;2024-03-02T00:50:08;7.00;95.60
55988;DHT22;75964;50.930;4.514;2024-03-02T00:52:34;7.10;95.50
55988;DHT22;75964;50.930;4.514;2024-03-02T00:55:00;7.20;95.40
55988;DHT22;75964;50.930;4.514;2024-03-02T00:57:27;7.20;95.80
55988;DHT22;75964;50.930;4.514;2024-03-02T00:59:55;7.20;95.50
55988;DHT22;75964;50.930;4.514;2024-03-02T01:02:20;7.20;95.60
55988;DHT22;75964;50.930;4.514;2024-03-02T01:04:46;7.20;95.40
55988;DHT22;75964;50.930;4.514;2024-03-02T01:07:12;7.10;95.40
55988;DHT22;75964;50.930;4.514;2024-03-02T01:09:37;7.10;95.70
55988;DHT22;75964;50.930;4.514;2024-03-02T01:12:03;7.20;95.60
55988;DHT22;75964;50.930;4.514;2024-03-02T01:14:30;7.20;95.20
55988;DHT22;75964;50.930;4.514;2024-03-02T01:16:55;7.10;95.60
55988;DHT22;75964;50.930;4.514;2024-03-02T01:19:21;7.10;95.40
55988;DHT22;75964;50.930;4.514;2024-03-02T01:21:47;7.10;95.20
55988;DHT22;75964;50.930;4.514;2024-03-02T01:24:12;7.20;95.40
55988;DHT22;75964;50.930;4.514;2024-03-02T01:26:38;7.20;95.20
55988;DHT22;75964;50.930;4.514;2024-03-02T01:29:04;7.20;95.10
55988;DHT22;75964;50.930;4.514;2024-03-02T01:31:30;7.20;95.10
55988;DHT22;75964;50.930;4.514;2024-03-02T01:33:55;7.10;95.30
55988;DHT22;75964;50.930;4.514;2024-03-02T01:36:21;7.20;95.40
55988;DHT22;75964;50.930;4.514;2024-03-02T01:38:47;7.20;95.20
55988;DHT22;75964;50.930;4.514;2024-03-02T01:41:12;7.20;95.10
55988;DHT22;75964;50.930;4.514;2024-03-02T01:43:38;7.20;95.00
55988;DHT22;75964;50.930;4.514;2024-03-02T01:46:04;7.20;95.00
55988;DHT22;75964;50.930;4.514;2024-03-02T01:48:30;7.20;94.90
55988;DHT22;75964;50.930;4.514;2024-03-02T01:50:55;7.20;94.90
55988;DHT22;75964;50.930;4.514;2024-03-02T01:53:21;7.20;94.70
55988;DHT22;75964;50.930;4.514;2024-03-02T01:55:47;7.10;94.70
55988;DHT22;75964;50.930;4.514;2024-03-02T01:58:13;7.00;94.80
55988;DHT22;75964;50.930;4.514;2024-03-02T02:00:38;7.00;94.90
55988;DHT22;75964;50.930;4.514;2024-03-02T02:03:04;7.00;94.80
55988;DHT22;75964;50.930;4.514;2024-03-02T02:05:30;7.00;94.70
55988;DHT22;75964;50.930;4.514;2024-03-02T02:07:57;6.90;94.90
55988;DHT22;75964;50.930;4.514;2024-03-02T02:10:24;6.90;95.00
55988;DHT22;75964;50.930;4.514;2024-03-02T02:12:49;6.90;94.90
55988;DHT22;75964;50.930;4.514;2024-03-02T02:15:31;7.10;94.80
55988;DHT22;75964;50.930;4.514;2024-03-02T02:17:57;7.10;94.70
55988;DHT22;75964;50.930;4.514;2024-03-02T02:20:24;7.20;94.60
55988;DHT22;75964;50.930;4.514;2024-03-02T02:23:05;7.30;94.20
55988;DHT22;75964;50.930;4.514;2024-03-02T02:25:33;7.20;94.20
55988;DHT22;75964;50.930;4.514;2024-03-02T02:27:59;7.20;94.70
55988;DHT22;75964;50.930;4.514;2024-03-02T02:30:26;7.20;94.10
55988;DHT22;75964;50.930;4.514;2024-03-02T02:32:53;7.20;93.80
55988;DHT22;75964;50.930;4.514;2024-03-02T02:35:18;7.20;93.80
55988;DHT22;75964;50.930;4.514;2024-03-02T02:37:45;7.30;93.90
55988;DHT22;75964;50.930;4.514;2024-03-02T02:40:12;7.30;93.80
55988;DHT22;75964;50.930;4.514;2024-03-02T02:42:38;7.30;93.60
55988;DHT22;75964;50.930;4.514;2024-03-02T02:45:05;7.20;93.60
55988;DHT22;75964;50.930;4.514;2024-03-02T02:47:31;7.30;93.70
55988;DHT22;75964;50.930;4.514;2024-03-02T02:49:59;7.30;93.30
55988;DHT22;75964;50.930;4.514;2024-03-02T02:52:24;7.30;93.20
55988;DHT22;75964;50.930;4.514;2024-03-02T02:54:50;7.20;93.10
55988;DHT22;75964;50.930;4.514;2024-03-02T02:57:16;7.20;93.20
55988;DHT22;75964;50.930;4.514;2024-03-02T02:59:42;7.30;93.00
55988;DHT22;75964;50.930;4.514;2024-03-02T03:02:08;7.20;93.20
55988;DHT22;75964;50.930;4.514;2024-03-02T03:04:33;7.20;93.10
55988;DHT22;75964;50.930;4.514;2024-03-02T03:06:59;7.20;93.10
55988;DHT22;75964;50.930;4.514;2024-03-02T03:09:24;7.20;93.10
55988;DHT22;75964;50.930;4.514;2024-03-02T03:11:50;7.30;92.90
55988;DHT22;75964;50.930;4.514;2024-03-02T03:14:16;7.20;92.80
55988;DHT22;75964;50.930;4.514;2024-03-02T03:16:42;7.20;92.80
55988;DHT22;75964;50.930;4.514;2024-03-02T03:19:07;7.20;92.80
55988;DHT22;75964;50.930;4.514;2024-03-02T03:21:33;7.20;92.90
55988;DHT22;75964;50.930;4.514;2024-03-02T03:23:59;7.10;92.90
55988;DHT22;75964;50.930;4.514;2024-03-02T03:26:25;7.00;93.00
55988;DHT22;75964;50.930;4.514;2024-03-02T03:28:50;7.00;93.10
55988;DHT22;75964;50.930;4.514;2024-03-02T03:31:16;6.90;93.20
55988;DHT22;75964;50.930;4.514;2024-03-02T03:33:41;6.80;93.20
55988;DHT22;75964;50.930;4.514;2024-03-02T03:36:07;6.70;93.60
55988;DHT22;75964;50.930;4.514;2024-03-02T03:38:33;6.70;93.70
55988;DHT22;75964;50.930;4.514;2024-03-02T03:40:58;6.70;93.60
55988;DHT22;75964;50.930;4.514;2024-03-02T03:43:24;6.70;93.40
55988;DHT22;75964;50.930;4.514;2024-03-02T03:45:50;6.60;93.50
55988;DHT22;75964;50.930;4.514;2024-03-02T03:48:15;6.50;93.80
55988;DHT22;75964;50.930;4.514;2024-03-02T03:50:41;6.50;93.80
55988;DHT22;75964;50.930;4.514;2024-03-02T03:53:07;6.50;93.80
55988;DHT22;75964;50.930;4.514;2024-03-02T03:55:32;6.40;93.90
55988;DHT22;75964;50.930;4.514;2024-03-02T03:57:58;6.40;94.10
55988;DHT22;75964;50.930;4.514;2024-03-02T04:00:24;6.40;94.00
55988;DHT22;75964;50.930;4.514;2024-03-02T04:02:50;6.50;94.00
55988;DHT22;75964;50.930;4.514;2024-03-02T04:05:15;6.40;93.90
55988;DHT22;75964;50.930;4.514;2024-03-02T04:07:41;6.40;94.00
55988;DHT22;75964;50.930;4.514;2024-03-02T04:10:09;6.50;94.00
55988;DHT22;75964;50.930;4.514;2024-03-02T04:12:38;6.40;94.10
55988;DHT22;75964;50.930;4.514;2024-03-02T04:15:07;6.40;94.00
55988;DHT22;75964;50.930;4.514;2024-03-02T04:17:33;6.40;94.00
55988;DHT22;75964;50.930;4.514;2024-03-02T04:20:00;6.50;93.90
55988;DHT22;75964;50.930;4.514;2024-03-02T04:22:27;6.60;93.60
55988;DHT22;75964;50.930;4.514;2024-03-02T04:24:52;6.60;93.60
55988;DHT22;75964;50.930;4.514;2024-03-02T04:27:18;6.60;93.70
55988;DHT22;75964;50.930;4.514;2024-03-02T04:29:44;6.70;93.50
55988;DHT22;75964;50.930;4.514;2024-03-02T04:32:09;6.70;93.30
55988;DHT22;75964;50.930;4.514;2024-03-02T04:34:35;6.70;93.30
55988;DHT22;75964;50.930;4.514;2024-03-02T04:37:01;6.70;93.40
55988;DHT22;75964;50.930;4.514;2024-03-02T04:39:26;6.80;93.20
55988;DHT22;75964;50.930;4.514;2024-03-02T04:41:52;6.80;93.00
55988;DHT22;75964;50.930;4.514;2024-03-02T04:44:18;6.80;92.90
55988;DHT22;75964;50.930;4.514;2024-03-02T04:46:43;6.70;92.80
55988;DHT22;75964;50.930;4.514;2024-03-02T04:49:09;6.70;92.90
55988;DHT22;75964;50.930;4.514;2024-03-02T04:51:35;6.60;92.90
55988;DHT22;75964;50.930;4.514;2024-03-02T04:54:00;6.50;93.30
55988;DHT22;75964;50.930;4.514;2024-03-02T04:56:26;6.40;93.30
55988;DHT22;75964;50.930;4.514;2024-03-02T04:58:58;6.50;93.40
55988;DHT22;75964;50.930;4.514;2024-03-02T05:01:23;6.40;93.30
55988;DHT22;75964;50.930;4.514;2024-03-02T05:03:49;6.40;93.60
55988;DHT22;75964;50.930;4.514;2024-03-02T05:06:14;6.30;93.70
55988;DHT22;75964;50.930;4.514;2024-03-02T05:08:40;6.20;93.70
55988;DHT22;75964;50.930;4.514;2024-03-02T05:11:06;6.30;93.70
55988;DHT22;75964;50.930;4.514;2024-03-02T05:13:50;6.20;93.80
55988;DHT22;75964;50.930;4.514;2024-03-02T05:16:15;6.20;93.60
55988;DHT22;75964;50.930;4.514;2024-03-02T05:18:41;6.30;93.60
55988;DHT22;75964;50.930;4.514;2024-03-02T05:21:07;6.30;93.60
55988;DHT22;75964;50.930;4.514;2024-03-02T05:23:32;6.10;93.70
55988;DHT22;75964;50.930;4.514;2024-03-02T05:25:58;6.20;94.00
55988;DHT22;75964;50.930;4.514;2024-03-02T05:28:24;6.10;93.90
55988;DHT22;75964;50.930;4.514;2024-03-02T05:30:50;6.20;93.90
55988;DHT22;75964;50.930;4.514;2024-03-02T05:33:18;6.20;93.90
55988;DHT22;75964;50.930;4.514;2024-03-02T05:35:44;6.30;93.80
55988;DHT22;75964;50.930;4.514;2024-03-02T05:38:10;6.40;93.60
55988;DHT22;75964;50.930;4.514;2024-03-02T05:40:35;6.40;93.50
55988;DHT22;75964;50.930;4.514;2024-03-02T05:43:01;6.30;93.60
55988;DHT22;75964;50.930;4.514;2024-03-02T05:45:27;6.30;93.50
55988;DHT22;75964;50.930;4.514;2024-03-02T05:47:52;6.50;93.50
55988;DHT22;75964;50.930;4.514;2024-03-02T05:50:18;6.50;93.30
55988;DHT22;75964;50.930;4.514;2024-03-02T05:52:45;6.50;93.20
55988;DHT22;75964;50.930;4.514;2024-03-02T05:55:11;6.40;93.30
55988;DHT22;75964;50.930;4.514;2024-03-02T05:57:36;6.40;93.20
55988;DHT22;75964;50.930;4.514;2024-03-02T06:00:20;6.30;93.40
55988;DHT22;75964;50.930;4.514;2024-03-02T06:02:46;6.20;93.50
55988;DHT22;75964;50.930;4.514;2024-03-02T06:05:12;6.20;93.50
55988;DHT22;75964;50.930;4.514;2024-03-02T06:07:37;6.20;93.50
55988;DHT22;75964;50.930;4.514;2024-03-02T06:10:03;6.20;93.60
55988;DHT22;75964;50.930;4.514;2024-03-02T06:12:31;6.20;93.40
55988;DHT22;75964;50.930;4.514;2024-03-02T06:14:57;6.10;93.60
55988;DHT22;75964;50.930;4.514;2024-03-02T06:17:23;6.10;93.50
55988;DHT22;75964;50.930;4.514;2024-03-02T06:19:49;6.10;93.80
55988;DHT22;75964;50.930;4.514;2024-03-02T06:22:14;6.00;93.90
55988;DHT22;75964;50.930;4.514;2024-03-02T06:24:40;5.90;93.90
55988;DHT22;75964;50.930;4.514;2024-03-02T06:27:05;5.90;94.00
55988;DHT22;75964;50.930;4.514;2024-03-02T06:29:34;5.90;94.20
55988;DHT22;75964;50.930;4.514;2024-03-02T06:32:00;5.90;94.10
55988;DHT22;75964;50.930;4.514;2024-03-02T06:34:25;6.00;94.10
55988;DHT22;75964;50.930;4.514;2024-03-02T06:36:51;5.90;93.90
55988;DHT22;75964;50.930;4.514;2024-03-02T06:39:17;5.80;94.00
55988;DHT22;75964;50.930;4.514;2024-03-02T06:41:42;5.90;94.00
55988;DHT22;75964;50.930;4.514;2024-03-02T06:44:08;5.90;93.90
55988;DHT22;75964;50.930;4.514;2024-03-02T06:46:34;6.00;93.80
55988;DHT22;75964;50.930;4.514;2024-03-02T06:48:59;6.00;93.70
55988;DHT22;75964;50.930;4.514;2024-03-02T06:51:27;6.00;93.60
55988;DHT22;75964;50.930;4.514;2024-03-02T06:53:53;6.10;93.60
55988;DHT22;75964;50.930;4.514;2024-03-02T06:56:19;6.10;93.60
55988;DHT22;75964;50.930;4.514;2024-03-02T06:58:44;5.90;93.90
55988;DHT22;75964;50.930;4.514;2024-03-02T07:01:10;5.90;93.90
55988;DHT22;75964;50.930;4.514;2024-03-02T07:03:36;6.00;93.80
55988;DHT22;75964;50.930;4.514;2024-03-02T07:06:01;6.10;93.70
55988;DHT22;75964;50.930;4.514;2024-03-02T07:08:28;6.00;93.60
55988;DHT22;75964;50.930;4.514;2024-03-02T07:10:54;6.00;93.70
55988;DHT22;75964;50.930;4.514;2024-03-02T07:13:19;6.00;93.70
55988;DHT22;75964;50.930;4.514;2024-03-02T07:15:45;6.10;93.60
55988;DHT22;75964;50.930;4.514;2024-03-02T07:18:11;6.20;93.50
55988;DHT22;75964;50.930;4.514;2024-03-02T07:20:37;6.30;93.30
55988;DHT22;75964;50.930;4.514;2024-03-02T07:23:04;6.40;93.20
55988;DHT22;75964;50.930;4.514;2024-03-02T07:25:30;6.50;92.90
55988;DHT22;75964;50.930;4.514;2024-03-02T07:27:55;6.60;92.90
55988;DHT22;75964;50.930;4.514;2024-03-02T07:30:21;6.60;92.80
55988;DHT22;75964;50.930;4.514;2024-03-02T07:32:50;6.50;92.80
55988;DHT22;75964;50.930;4.514;2024-03-02T07:35:15;6.50;93.10
55988;DHT22;75964;50.930;4.514;2024-03-02T07:37:42;6.50;93.00
55988;DHT22;75964;50.930;4.514;2024-03-02T07:40:09;6.60;92.90
55988;DHT22;75964;50.930;4.514;2024-03-02T07:42:40;6.80;92.50
55988;DHT22;75964;50.930;4.514;2024-03-02T07:45:06;6.80;92.40
55988;DHT22;75964;50.930;4.514;2024-03-02T07:47:33;6.90;92.60
55988;DHT22;75964;50.930;4.514;2024-03-02T07:49:59;7.00;92.50
55988;DHT22;75964;50.930;4.514;2024-03-02T07:52:25;7.00;92.30
55988;DHT22;75964;50.930;4.514;2024-03-02T07:54:50;7.10;92.30
55988;DHT22;75964;50.930;4.514;2024-03-02T07:57:16;7.20;92.30
55988;DHT22;75964;50.930;4.514;2024-03-02T07:59:42;7.30;92.60
55988;DHT22;75964;50.930;4.514;2024-03-02T08:02:08;7.40;91.90
55988;DHT22;75964;50.930;4.514;2024-03-02T08:04:34;7.40;91.80
55988;DHT22;75964;50.930;4.514;2024-03-02T08:07:00;7.40;91.80
55988;DHT22;75964;50.930;4.514;2024-03-02T08:09:25;7.40;91.90
55988;DHT22;75964;50.930;4.514;2024-03-02T08:11:51;7.50;91.70
55988;DHT22;75964;50.930;4.514;2024-03-02T08:14:17;7.70;91.50
55988;DHT22;75964;50.930;4.514;2024-03-02T08:16:42;7.70;91.00
55988;DHT22;75964;50.930;4.514;2024-03-02T08:19:08;7.80;90.80
55988;DHT22;75964;50.930;4.514;2024-03-02T08:21:34;7.80;90.80
55988;DHT22;75964;50.930;4.514;2024-03-02T08:24:01;8.00;90.80
55988;DHT22;75964;50.930;4.514;2024-03-02T08:26:27;8.10;90.50
55988;DHT22;75964;50.930;4.514;2024-03-02T08:28:55;8.10;90.60
55988;DHT22;75964;50.930;4.514;2024-03-02T08:31:21;8.10;90.40
55988;DHT22;75964;50.930;4.514;2024-03-02T08:33:46;8.20;90.30
55988;DHT22;75964;50.930;4.514;2024-03-02T08:36:12;8.10;90.10
55988;DHT22;75964;50.930;4.514;2024-03-02T08:38:38;8.10;90.00
55988;DHT22;75964;50.930;4.514;2024-03-02T08:41:04;8.30;90.10
55988;DHT22;75964;50.930;4.514;2024-03-02T08:43:30;8.30;90.00
55988;DHT22;75964;50.930;4.514;2024-03-02T08:45:56;8.40;89.60
55988;DHT22;75964;50.930;4.514;2024-03-02T08:48:21;8.40;90.00
55988;DHT22;75964;50.930;4.514;2024-03-02T08:50:47;8.40;89.50
55988;DHT22;75964;50.930;4.514;2024-03-02T08:53:13;8.60;90.00
55988;DHT22;75964;50.930;4.514;2024-03-02T08:55:38;8.60;88.60
55988;DHT22;75964;50.930;4.514;2024-03-02T08:58:04;8.70;88.40
55988;DHT22;75964;50.930;4.514;2024-03-02T09:00:30;8.80;88.50
55988;DHT22;75964;50.930;4.514;2024-03-02T09:02:55;8.90;87.30
55988;DHT22;75964;50.930;4.514;2024-03-02T09:05:21;9.00;87.30
55988;DHT22;75964;50.930;4.514;2024-03-02T09:07:47;9.00;86.30
55988;DHT22;75964;50.930;4.514;2024-03-02T09:10:12;9.00;86.90
55988;DHT22;75964;50.930;4.514;2024-03-02T09:12:38;9.20;86.00
55988;DHT22;75964;50.930;4.514;2024-03-02T09:15:05;9.40;87.10
55988;DHT22;75964;50.930;4.514;2024-03-02T09:17:33;9.50;84.40
55988;DHT22;75964;50.930;4.514;2024-03-02T09:19:59;9.50;83.30
55988;DHT22;75964;50.930;4.514;2024-03-02T09:22:25;9.40;84.10
55988;DHT22;75964;50.930;4.514;2024-03-02T09:24:50;9.50;83.70
55988;DHT22;75964;50.930;4.514;2024-03-02T09:27:16;9.60;83.40
55988;DHT22;75964;50.930;4.514;2024-03-02T09:29:42;9.70;82.50
55988;DHT22;75964;50.930;4.514;2024-03-02T09:32:11;9.70;81.70
55988;DHT22;75964;50.930;4.514;2024-03-02T09:34:37;9.80;81.50
55988;DHT22;75964;50.930;4.514;2024-03-02T09:37:03;9.90;82.90
55988;DHT22;75964;50.930;4.514;2024-03-02T09:39:30;9.90;82.10
55988;DHT22;75964;50.930;4.514;2024-03-02T09:41:55;10.10;81.80
55988;DHT22;75964;50.930;4.514;2024-03-02T09:44:21;10.10;81.10
55988;DHT22;75964;50.930;4.514;2024-03-02T09:46:51;10.10;80.80
55988;DHT22;75964;50.930;4.514;2024-03-02T09:49:17;10.20;81.40
55988;DHT22;75964;50.930;4.514;2024-03-02T09:51:49;10.30;81.50
55988;DHT22;75964;50.930;4.514;2024-03-02T09:54:17;10.30;79.70
55988;DHT22;75964;50.930;4.514;2024-03-02T09:56:46;10.30;78.80
55988;DHT22;75964;50.930;4.514;2024-03-02T09:59:13;10.50;80.20
55988;DHT22;75964;50.930;4.514;2024-03-02T10:02:00;10.40;79.70
55988;DHT22;75964;50.930;4.514;2024-03-02T10:04:28;10.60;80.20
55988;DHT22;75964;50.930;4.514;2024-03-02T10:07:14;10.70;80.20
55988;DHT22;75964;50.930;4.514;2024-03-02T10:09:42;10.60;78.80
55988;DHT22;75964;50.930;4.514;2024-03-02T10:12:09;10.60;79.80
55988;DHT22;75964;50.930;4.514;2024-03-02T10:14:35;10.60;78.60
55988;DHT22;75964;50.930;4.514;2024-03-02T10:17:09;10.50;79.70
55988;DHT22;75964;50.930;4.514;2024-03-02T10:19:36;10.70;79.20
55988;DHT22;75964;50.930;4.514;2024-03-02T10:22:04;10.90;79.60
55988;DHT22;75964;50.930;4.514;2024-03-02T10:24:42;11.00;77.90
55988;DHT22;75964;50.930;4.514;2024-03-02T10:27:15;10.90;78.50
55988;DHT22;75964;50.930;4.514;2024-03-02T10:29:45;10.60;78.50
55988;DHT22;75964;50.930;4.514;2024-03-02T10:32:11;10.80;78.70
55988;DHT22;75964;50.930;4.514;2024-03-02T10:34:39;11.00;80.30
55988;DHT22;75964;50.930;4.514;2024-03-02T10:37:06;11.30;80.00
55988;DHT22;75964;50.930;4.514;2024-03-02T10:39:37;11.20;77.20
55988;DHT22;75964;50.930;4.514;2024-03-02T10:42:06;11.40;78.20
55988;DHT22;75964;50.930;4.514;2024-03-02T10:44:32;11.60;76.40
55988;DHT22;75964;50.930;4.514;2024-03-02T10:47:03;11.60;75.90
55988;DHT22;75964;50.930;4.514;2024-03-02T10:49:34;11.40;76.10
55988;DHT22;75964;50.930;4.514;2024-03-02T10:52:00;11.50;76.60
55988;DHT22;75964;50.930;4.514;2024-03-02T10:54:26;11.50;74.90
55988;DHT22;75964;50.930;4.514;2024-03-02T10:56:57;11.30;75.40
55988;DHT22;75964;50.930;4.514;2024-03-02T10:59:36;11.10;75.50
55988;DHT22;75964;50.930;4.514;2024-03-02T11:02:05;11.20;75.50
55988;DHT22;75964;50.930;4.514;2024-03-02T11:04:36;11.50;77.70
55988;DHT22;75964;50.930;4.514;2024-03-02T11:07:05;11.70;74.10
55988;DHT22;75964;50.930;4.514;2024-03-02T11:09:34;11.60;76.00
55988;DHT22;75964;50.930;4.514;2024-03-02T11:12:44;11.70;75.50
55988;DHT22;75964;50.930;4.514;2024-03-02T11:15:17;11.80;74.30
55988;DHT22;75964;50.930;4.514;2024-03-02T11:17:47;11.70;73.90
55988;DHT22;75964;50.930;4.514;2024-03-02T11:20:13;11.80;72.20
55988;DHT22;75964;50.930;4.514;2024-03-02T11:22:41;11.80;73.70
55988;DHT22;75964;50.930;4.514;2024-03-02T11:25:24;11.80;73.60
55988;DHT22;75964;50.930;4.514;2024-03-02T11:33:04;11.80;74.00
55988;DHT22;75964;50.930;4.514;2024-03-02T11:35:37;11.70;74.00
55988;DHT22;75964;50.930;4.514;2024-03-02T11:38:03;11.70;74.60
55988;DHT22;75964;50.930;4.514;2024-03-02T11:40:29;11.60;74.40
55988;DHT22;75964;50.930;4.514;2024-03-02T11:42:56;11.70;75.30
55988;DHT22;75964;50.930;4.514;2024-03-02T11:45:26;11.80;74.40
55988;DHT22;75964;50.930;4.514;2024-03-02T11:47:57;12.00;76.20
55988;DHT22;75964;50.930;4.514;2024-03-02T11:50:36;11.90;73.60
55988;DHT22;75964;50.930;4.514;2024-03-02T11:53:06;12.20;73.90
55988;DHT22;75964;50.930;4.514;2024-03-02T11:55:35;12.10;74.50
55988;DHT22;75964;50.930;4.514;2024-03-02T11:58:05;12.10;74.30
55988;DHT22;75964;50.930;4.514;2024-03-02T12:00:31;12.00;73.30
55988;DHT22;75964;50.930;4.514;2024-03-02T12:03:05;12.20;75.10
55988;DHT22;75964;50.930;4.514;2024-03-02T12:05:31;12.30;74.70
55988;DHT22;75964;50.930;4.514;2024-03-02T12:08:03;12.50;74.40
55988;DHT22;75964;50.930;4.514;2024-03-02T12:10:29;12.40;71.90
55988;DHT22;75964;50.930;4.514;2024-03-02T12:13:00;12.50;72.10
55988;DHT22;75964;50.930;4.514;2024-03-02T12:15:27;12.60;72.70
55988;DHT22;75964;50.930;4.514;2024-03-02T12:17:57;12.30;72.80
55988;DHT22;75964;50.930;4.514;2024-03-02T12:20:27;12.30;73.10
55988;DHT22;75964;50.930;4.514;2024-03-02T12:22:56;12.40;73.40
55988;DHT22;75964;50.930;4.514;2024-03-02T12:25:23;12.50;71.80
55988;DHT22;75964;50.930;4.514;2024-03-02T12:27:51;12.40;71.40
55988;DHT22;75964;50.930;4.514;2024-03-02T12:30:17;12.40;71.90
55988;DHT22;75964;50.930;4.514;2024-03-02T12:32:44;12.60;73.10
55988;DHT22;75964;50.930;4.514;2024-03-02T12:35:13;12.70;72.20
55988;DHT22;75964;50.930;4.514;2024-03-02T12:37:49;12.50;70.10
55988;DHT22;75964;50.930;4.514;2024-03-02T12:40:17;12.30;70.90
55988;DHT22;75964;50.930;4.514;2024-03-02T12:42:44;12.30;72.00
55988;DHT22;75964;50.930;4.514;2024-03-02T12:45:11;12.30;72.40
55988;DHT22;75964;50.930;4.514;2024-03-02T12:47:37;12.20;70.90
55988;DHT22;75964;50.930;4.514;2024-03-02T12:50:05;12.20;73.00
55988;DHT22;75964;50.930;4.514;2024-03-02T12:52:31;12.30;72.70
55988;DHT22;75964;50.930;4.514;2024-03-02T12:54:59;12.20;72.50
55988;DHT22;75964;50.930;4.514;2024-03-02T12:57:29;12.20;73.50
55988;DHT22;75964;50.930;4.514;2024-03-02T13:00:00;12.30;73.20
55988;DHT22;75964;50.930;4.514;2024-03-02T13:02:30;12.40;73.50
55988;DHT22;75964;50.930;4.514;2024-03-02T13:04:57;12.50;73.50
55988;DHT22;75964;50.930;4.514;2024-03-02T13:07:24;12.60;72.40
55988;DHT22;75964;50.930;4.514;2024-03-02T13:09:52;12.60;72.20
55988;DHT22;75964;50.930;4.514;2024-03-02T13:12:21;12.80;72.60
55988;DHT22;75964;50.930;4.514;2024-03-02T13:14:51;13.00;70.80
55988;DHT22;75964;50.930;4.514;2024-03-02T13:17:21;13.00;70.20
55988;DHT22;75964;50.930;4.514;2024-03-02T13:19:57;13.00;70.80
55988;DHT22;75964;50.930;4.514;2024-03-02T13:22:23;12.90;70.40
55988;DHT22;75964;50.930;4.514;2024-03-02T13:24:50;13.10;70.20
55988;DHT22;75964;50.930;4.514;2024-03-02T13:27:16;13.10;70.90
55988;DHT22;75964;50.930;4.514;2024-03-02T13:29:45;13.10;70.20
55988;DHT22;75964;50.930;4.514;2024-03-02T13:32:11;13.00;70.50
55988;DHT22;75964;50.930;4.514;2024-03-02T13:34:37;12.70;70.40
55988;DHT22;75964;50.930;4.514;2024-03-02T13:37:03;12.70;73.10
55988;DHT22;75964;50.930;4.514;2024-03-02T13:39:31;12.70;71.70
55988;DHT22;75964;50.930;4.514;2024-03-02T13:41:58;12.70;71.50
55988;DHT22;75964;50.930;4.514;2024-03-02T13:44:30;12.60;71.20
55988;DHT22;75964;50.930;4.514;2024-03-02T13:46:56;12.50;72.00
55988;DHT22;75964;50.930;4.514;2024-03-02T13:49:22;12.50;72.70
55988;DHT22;75964;50.930;4.514;2024-03-02T13:51:48;12.60;73.60
55988;DHT22;75964;50.930;4.514;2024-03-02T13:54:14;12.60;72.30
55988;DHT22;75964;50.930;4.514;2024-03-02T13:56:42;12.70;72.70
55988;DHT22;75964;50.930;4.514;2024-03-02T13:59:08;12.80;71.00
55988;DHT22;75964;50.930;4.514;2024-03-02T14:01:35;12.80;70.60
55988;DHT22;75964;50.930;4.514;2024-03-02T14:04:01;12.90;70.50
55988;DHT22;75964;50.930;4.514;2024-03-02T14:06:27;13.00;71.30
55988;DHT22;75964;50.930;4.514;2024-03-02T14:08:53;13.00;72.10
55988;DHT22;75964;50.930;4.514;2024-03-02T14:11:19;13.00;70.80
55988;DHT22;75964;50.930;4.514;2024-03-02T14:13:45;12.90;68.70
55988;DHT22;75964;50.930;4.514;2024-03-02T14:16:15;12.90;70.10
55988;DHT22;75964;50.930;4.514;2024-03-02T14:18:41;12.80;70.80
55988;DHT22;75964;50.930;4.514;2024-03-02T14:21:07;12.90;70.50
55988;DHT22;75964;50.930;4.514;2024-03-02T14:23:33;12.90;71.00
55988;DHT22;75964;50.930;4.514;2024-03-02T14:25:59;12.90;68.80
55988;DHT22;75964;50.930;4.514;2024-03-02T14:28:25;13.00;70.10
55988;DHT22;75964;50.930;4.514;2024-03-02T14:30:51;13.00;70.20
55988;DHT22;75964;50.930;4.514;2024-03-02T14:33:16;13.00;70.40
55988;DHT22;75964;50.930;4.514;2024-03-02T14:35:44;12.90;71.90
55988;DHT22;75964;50.930;4.514;2024-03-02T14:38:11;13.10;70.20
55988;DHT22;75964;50.930;4.514;2024-03-02T14:40:37;13.00;70.90
55988;DHT22;75964;50.930;4.514;2024-03-02T14:43:03;13.00;71.40
55988;DHT22;75964;50.930;4.514;2024-03-02T14:45:29;12.90;70.50
55988;DHT22;75964;50.930;4.514;2024-03-02T14:47:55;12.90;71.60
55988;DHT22;75964;50.930;4.514;2024-03-02T14:50:21;12.80;70.70
55988;DHT22;75964;50.930;4.514;2024-03-02T14:52:47;12.90;71.60
55988;DHT22;75964;50.930;4.514;2024-03-02T14:55:13;12.90;72.40
55988;DHT22;75964;50.930;4.514;2024-03-02T14:57:39;13.00;72.00
55988;DHT22;75964;50.930;4.514;2024-03-02T15:00:06;12.80;72.50
55988;DHT22;75964;50.930;4.514;2024-03-02T15:02:37;13.00;72.10
55988;DHT22;75964;50.930;4.514;2024-03-02T15:05:04;12.90;71.10
55988;DHT22;75964;50.930;4.514;2024-03-02T15:07:32;12.80;72.20
55988;DHT22;75964;50.930;4.514;2024-03-02T15:09:58;12.50;73.20
55988;DHT22;75964;50.930;4.514;2024-03-02T15:12:24;12.70;73.80
55988;DHT22;75964;50.930;4.514;2024-03-02T15:14:50;12.70;73.60
55988;DHT22;75964;50.930;4.514;2024-03-02T15:17:16;12.60;74.40
55988;DHT22;75964;50.930;4.514;2024-03-02T15:19:46;12.60;75.80
55988;DHT22;75964;50.930;4.514;2024-03-02T15:22:12;12.60;77.20
55988;DHT22;75964;50.930;4.514;2024-03-02T15:24:38;12.50;79.80
55988;DHT22;75964;50.930;4.514;2024-03-02T15:27:05;12.30;79.60
55988;DHT22;75964;50.930;4.514;2024-03-02T15:29:32;12.10;82.10
55988;DHT22;75964;50.930;4.514;2024-03-02T15:31:58;12.10;82.70
55988;DHT22;75964;50.930;4.514;2024-03-02T15:34:25;12.20;83.00
55988;DHT22;75964;50.930;4.514;2024-03-02T15:36:50;12.10;82.90
55988;DHT22;75964;50.930;4.514;2024-03-02T15:39:17;12.00;83.00
55988;DHT22;75964;50.930;4.514;2024-03-02T15:41:44;11.90;84.10
55988;DHT22;75964;50.930;4.514;2024-03-02T15:44:10;11.90;83.40
55988;DHT22;75964;50.930;4.514;2024-03-02T15:46:37;12.00;83.50